createdAt,value
2023-03-13T00:00:31.279Z,10.79
2023-03-13T00:01:31.325Z,10.76
2023-03-13T00:02:31.434Z,10.78
2023-03-13T00:03:31.254Z,10.81
2023-03-13T00:04:31.317Z,10.82
2023-03-13T00:05:31.206Z,10.81
2023-03-13T00:06:31.267Z,10.78
2023-03-13T00:07:31.185Z,10.74
2023-03-13T00:08:31.188Z,10.70
2023-03-13T00:09:31.147Z,10.67
2023-03-13T00:10:31.158Z,10.64
2023-03-13T00:11:31.123Z,10.64
2023-03-13T00:12:31.108Z,10.60
2023-03-13T00:13:31.125Z,10.60
2023-03-13T00:14:31.081Z,10.59
2023-03-13T00:15:31.058Z,10.59
2023-03-13T00:16:31.305Z,10.60
2023-03-13T00:17:31.260Z,10.59
2023-03-13T00:18:31.033Z,10.60
2023-03-13T00:19:30.994Z,10.53
2023-03-13T00:20:30.983Z,10.51
2023-03-13T00:21:30.993Z,10.45
2023-03-13T00:22:30.976Z,10.42
2023-03-13T00:23:30.959Z,10.33
2023-03-13T00:24:30.937Z,10.30
2023-03-13T00:25:30.920Z,10.26
2023-03-13T00:26:30.916Z,10.18
2023-03-13T00:27:30.889Z,10.15
2023-03-13T00:28:32.493Z,10.17
2023-03-13T00:29:30.849Z,10.15
2023-03-13T00:30:30.848Z,10.15
2023-03-13T00:31:31.026Z,10.12
2023-03-13T00:32:30.849Z,10.14
2023-03-13T00:33:30.801Z,10.12
2023-03-13T00:34:30.800Z,10.08
2023-03-13T00:35:30.829Z,10.04
2023-03-13T00:36:30.750Z,10.04
2023-03-13T00:37:30.748Z,10.05
2023-03-13T00:38:30.717Z,10.02
2023-03-13T00:39:30.757Z,10.04
2023-03-13T00:40:30.707Z,10.02
2023-03-13T00:41:30.711Z,10.04
2023-03-13T00:42:30.680Z,10.02
2023-03-13T00:43:30.652Z,9.97
2023-03-13T00:44:30.670Z,9.93
2023-03-13T00:45:30.629Z,9.89
2023-03-13T00:46:30.715Z,9.89
2023-03-13T00:47:30.615Z,9.90
2023-03-13T00:48:30.601Z,9.89
2023-03-13T00:49:30.600Z,9.86
2023-03-13T00:50:30.574Z,9.84
2023-03-13T00:51:30.545Z,9.76
2023-03-13T00:52:30.607Z,9.76
2023-03-13T00:53:30.526Z,9.79
2023-03-13T00:54:30.491Z,9.76
2023-03-13T00:55:30.513Z,9.71
2023-03-13T00:56:30.486Z,9.75
2023-03-13T00:57:30.469Z,9.72
2023-03-13T00:58:30.470Z,9.71
2023-03-13T00:59:30.453Z,9.66
2023-03-13T01:00:30.403Z,9.66
2023-03-13T01:01:30.441Z,9.65
2023-03-13T01:02:30.490Z,9.64
2023-03-13T01:03:30.443Z,9.58
2023-03-13T01:04:30.386Z,9.61
2023-03-13T01:05:30.402Z,9.61
2023-03-13T01:06:30.317Z,9.58
2023-03-13T01:07:30.366Z,9.57
2023-03-13T01:08:30.314Z,9.58
2023-03-13T01:09:30.315Z,9.53
2023-03-13T01:10:30.283Z,9.54
2023-03-13T01:11:30.293Z,9.51
2023-03-13T01:12:30.240Z,9.54
2023-03-13T01:13:30.260Z,9.51
2023-03-13T01:14:30.236Z,9.53
2023-03-13T01:15:30.301Z,9.53
2023-03-13T01:16:30.188Z,9.53
2023-03-13T01:17:30.173Z,9.56
2023-03-13T01:18:30.187Z,9.53
2023-03-13T01:19:30.162Z,9.51
2023-03-13T01:20:30.143Z,9.46
2023-03-13T01:21:30.174Z,9.48
2023-03-13T01:22:30.117Z,9.46
2023-03-13T01:23:30.097Z,9.46
2023-03-13T01:24:30.104Z,9.42
2023-03-13T01:25:30.069Z,9.43
2023-03-13T01:26:30.067Z,9.48
2023-03-13T01:27:30.049Z,9.48
2023-03-13T01:28:30.035Z,9.43
2023-03-13T01:29:30.072Z,9.46
2023-03-13T01:30:30.013Z,9.42
2023-03-13T01:31:30.050Z,9.46
2023-03-13T01:32:30.017Z,9.47
2023-03-13T01:33:29.960Z,9.46
2023-03-13T01:34:30.068Z,9.43
2023-03-13T01:35:29.985Z,9.42
2023-03-13T01:36:29.930Z,9.42
2023-03-13T01:37:29.922Z,9.39
2023-03-13T01:38:29.946Z,9.42
2023-03-13T01:39:29.886Z,9.48
2023-03-13T01:40:29.879Z,9.48
2023-03-13T01:41:29.895Z,9.46
2023-03-13T01:42:29.854Z,9.46
2023-03-13T01:43:29.822Z,9.48
2023-03-13T01:44:29.801Z,9.48
2023-03-13T01:45:29.817Z,9.47
2023-03-13T01:46:29.907Z,9.48
2023-03-13T01:47:29.797Z,9.47
2023-03-13T01:48:29.753Z,9.42
2023-03-13T01:49:29.765Z,9.43
2023-03-13T01:50:29.724Z,9.46
2023-03-13T01:51:29.727Z,9.47
2023-03-13T01:52:29.704Z,9.43
2023-03-13T01:53:29.687Z,9.40
2023-03-13T01:54:29.701Z,9.46
2023-03-13T01:55:29.660Z,9.42
2023-03-13T01:56:29.638Z,9.40
2023-03-13T01:57:29.633Z,9.47
2023-03-13T01:58:29.669Z,9.40
2023-03-13T01:59:29.608Z,9.42
2023-03-13T02:00:29.677Z,9.40
2023-03-13T02:01:29.634Z,9.40
2023-03-13T02:02:29.644Z,9.39
2023-03-13T02:03:29.548Z,9.42
2023-03-13T02:04:29.521Z,9.46
2023-03-13T02:05:29.551Z,9.48
2023-03-13T02:06:29.497Z,9.50
2023-03-13T02:07:29.478Z,9.47
2023-03-13T02:08:29.502Z,9.48
2023-03-13T02:09:29.455Z,9.48
2023-03-13T02:10:29.461Z,9.47
2023-03-13T02:11:29.482Z,9.50
2023-03-13T02:12:29.473Z,9.48
2023-03-13T02:13:29.399Z,9.53
2023-03-13T02:14:29.406Z,9.51
2023-03-13T02:15:29.393Z,9.54
2023-03-13T02:16:29.459Z,9.53
2023-03-13T02:17:29.345Z,9.53
2023-03-13T02:18:29.373Z,9.51
2023-03-13T02:19:29.328Z,9.56
2023-03-13T02:20:29.342Z,9.56
2023-03-13T02:21:29.286Z,9.54
2023-03-13T02:22:29.290Z,9.57
2023-03-13T02:23:29.259Z,9.61
2023-03-13T02:24:29.259Z,9.64
2023-03-13T02:25:29.243Z,9.60
2023-03-13T02:26:29.287Z,9.64
2023-03-13T02:27:29.225Z,9.65
2023-03-13T02:28:29.208Z,9.66
2023-03-13T02:29:29.225Z,9.64
2023-03-13T02:30:29.175Z,9.65
2023-03-13T02:31:29.201Z,9.65
2023-03-13T02:32:29.260Z,9.66
2023-03-13T02:33:29.124Z,9.66
2023-03-13T02:34:29.216Z,9.69
2023-03-13T02:35:29.113Z,9.68
2023-03-13T02:36:29.082Z,9.71
2023-03-13T02:37:29.096Z,9.71
2023-03-13T02:38:29.079Z,9.72
2023-03-13T02:39:29.074Z,9.76
2023-03-13T02:40:29.038Z,9.78
2023-03-13T02:41:29.017Z,9.76
2023-03-13T02:42:29.032Z,9.84
2023-03-13T02:43:29.039Z,9.87
2023-03-13T02:44:28.986Z,9.84
2023-03-13T02:45:28.997Z,9.86
2023-03-13T02:46:29.098Z,9.83
2023-03-13T02:47:28.948Z,9.83
2023-03-13T02:48:28.938Z,9.86
2023-03-13T02:49:28.911Z,9.84
2023-03-13T02:50:28.902Z,9.89
2023-03-13T02:51:28.917Z,9.91
2023-03-13T02:52:28.875Z,9.90
2023-03-13T02:53:28.905Z,9.91
2023-03-13T02:54:28.841Z,9.89
2023-03-13T02:55:28.823Z,9.91
2023-03-13T02:56:28.831Z,9.93
2023-03-13T02:57:28.821Z,9.90
2023-03-13T02:58:31.708Z,9.94
2023-03-13T02:59:28.783Z,9.97
2023-03-13T03:00:28.834Z,9.94
2023-03-13T03:01:28.745Z,9.99
2023-03-13T03:02:28.739Z,10.01
2023-03-13T03:03:28.729Z,10.02
2023-03-13T03:04:28.716Z,10.07
2023-03-13T03:05:28.695Z,10.07
2023-03-13T03:06:28.701Z,10.11
2023-03-13T03:07:28.667Z,10.12
2023-03-13T03:08:28.664Z,10.14
2023-03-13T03:09:28.676Z,10.23
2023-03-13T03:10:28.648Z,10.23
2023-03-13T03:11:28.617Z,10.23
2023-03-13T03:12:28.592Z,10.23
2023-03-13T03:13:28.604Z,10.27
2023-03-13T03:14:28.568Z,10.27
2023-03-13T03:15:28.572Z,10.33
2023-03-13T03:16:28.565Z,10.38
2023-03-13T03:17:28.531Z,10.38
2023-03-13T03:18:28.520Z,10.45
2023-03-13T03:19:28.564Z,10.44
2023-03-13T03:20:28.521Z,10.38
2023-03-13T03:21:28.476Z,10.40
2023-03-13T03:22:28.460Z,10.44
2023-03-13T03:23:28.479Z,10.44
2023-03-13T03:24:28.425Z,10.44
2023-03-13T03:25:28.401Z,10.42
2023-03-13T03:26:28.434Z,10.45
2023-03-13T03:27:28.424Z,10.40
2023-03-13T03:28:28.382Z,10.47
2023-03-13T03:29:28.365Z,10.44
2023-03-13T03:30:28.344Z,10.48
2023-03-13T03:31:28.406Z,10.48
2023-03-13T03:32:28.480Z,10.48
2023-03-13T03:33:28.312Z,10.52
2023-03-13T03:34:28.273Z,10.53
2023-03-13T03:35:28.290Z,10.52
2023-03-13T03:36:28.267Z,10.53
2023-03-13T03:37:28.270Z,10.55
2023-03-13T03:38:28.227Z,10.59
2023-03-13T03:39:28.213Z,10.56
2023-03-13T03:40:28.190Z,10.63
2023-03-13T03:41:28.196Z,10.63
2023-03-13T03:42:28.196Z,10.59
2023-03-13T03:43:28.168Z,10.60
2023-03-13T03:44:28.140Z,10.60
2023-03-13T03:45:28.196Z,10.60
2023-03-13T03:46:28.157Z,10.63
2023-03-13T03:47:28.247Z,10.64
2023-03-13T03:48:28.081Z,10.66
2023-03-13T03:49:28.092Z,10.70
2023-03-13T03:50:28.131Z,10.68
2023-03-13T03:51:28.056Z,10.71
2023-03-13T03:52:28.020Z,10.68
2023-03-13T03:53:28.043Z,10.67
2023-03-13T03:54:28.071Z,10.70
2023-03-13T03:55:28.013Z,10.70
2023-03-13T03:56:27.997Z,10.71
2023-03-13T03:57:27.988Z,10.76
2023-03-13T03:58:27.928Z,10.76
2023-03-13T03:59:27.916Z,10.74
2023-03-13T04:00:27.937Z,10.74
2023-03-13T04:01:27.908Z,10.74
2023-03-13T04:02:27.931Z,10.81
2023-03-13T04:03:27.966Z,10.76
2023-03-13T04:04:27.884Z,10.74
2023-03-13T04:05:27.845Z,10.78
2023-03-13T04:06:27.832Z,10.79
2023-03-13T04:07:27.808Z,10.81
2023-03-13T04:08:27.784Z,10.76
2023-03-13T04:09:29.839Z,10.78
2023-03-13T04:10:27.796Z,10.79
2023-03-13T04:11:27.828Z,10.79
2023-03-13T04:12:27.749Z,10.79
2023-03-13T04:13:27.756Z,10.81
2023-03-13T04:14:27.701Z,10.82
2023-03-13T04:15:27.701Z,10.81
2023-03-13T04:16:27.764Z,10.82
2023-03-13T04:17:27.672Z,10.84
2023-03-13T04:18:27.700Z,10.84
2023-03-13T04:19:27.644Z,10.84
2023-03-13T04:20:27.612Z,10.85
2023-03-13T04:21:27.651Z,10.85
2023-03-13T04:22:27.604Z,10.88
2023-03-13T04:23:27.574Z,10.88
2023-03-13T04:24:27.583Z,10.89
2023-03-13T04:25:27.566Z,10.94
2023-03-13T04:26:27.552Z,10.92
2023-03-13T04:27:27.539Z,10.94
2023-03-13T04:28:27.508Z,10.96
2023-03-13T04:29:27.484Z,10.92
2023-03-13T04:30:27.492Z,10.94
2023-03-13T04:31:27.462Z,10.99
2023-03-13T04:32:27.467Z,11.06
2023-03-13T04:33:27.491Z,11.02
2023-03-13T04:34:27.426Z,11.06
2023-03-13T04:35:27.421Z,11.06
2023-03-13T04:36:27.414Z,11.09
2023-03-13T04:37:27.551Z,11.09
2023-03-13T04:38:27.453Z,11.10
2023-03-13T04:39:27.349Z,11.10
2023-03-13T04:40:27.344Z,11.11
2023-03-13T04:41:27.430Z,11.14
2023-03-13T04:42:27.291Z,11.17
2023-03-13T04:43:27.301Z,11.22
2023-03-13T04:44:27.265Z,11.21
2023-03-13T04:45:27.331Z,11.22
2023-03-13T04:46:27.268Z,11.27
2023-03-13T04:47:27.268Z,11.27
2023-03-13T04:48:27.214Z,11.27
2023-03-13T04:49:27.200Z,11.28
2023-03-13T04:50:27.210Z,11.28
2023-03-13T04:51:27.198Z,11.35
2023-03-13T04:52:27.157Z,11.35
2023-03-13T04:53:27.147Z,11.35
2023-03-13T04:54:27.129Z,11.37
2023-03-13T04:55:27.120Z,11.44
2023-03-13T04:56:42.233Z,11.51
2023-03-13T04:57:28.167Z,11.49
2023-03-13T04:58:27.066Z,11.52
2023-03-13T04:59:27.067Z,11.55
2023-03-13T05:00:27.066Z,11.60
2023-03-13T05:01:27.181Z,11.62
2023-03-13T05:02:27.017Z,11.67
2023-03-13T05:03:27.081Z,11.72
2023-03-13T05:04:27.023Z,11.72
2023-03-13T05:05:27.090Z,11.78
2023-03-13T05:06:26.948Z,11.78
2023-03-13T05:07:26.949Z,11.82
2023-03-13T05:08:26.942Z,11.80
2023-03-13T05:09:26.951Z,11.85
2023-03-13T05:10:26.884Z,11.94
2023-03-13T05:11:26.915Z,11.96
2023-03-13T05:12:26.883Z,11.96
2023-03-13T05:13:26.889Z,11.98
2023-03-13T05:14:26.831Z,12.01
2023-03-13T05:15:26.871Z,12.01
2023-03-13T05:16:26.841Z,12.01
2023-03-13T05:17:26.809Z,12.05
2023-03-13T05:18:26.806Z,12.10
2023-03-13T05:19:26.796Z,12.13
2023-03-13T05:20:26.746Z,12.12
2023-03-13T05:21:26.810Z,12.14
2023-03-13T05:22:26.773Z,12.13
2023-03-13T05:23:26.719Z,12.14
2023-03-13T05:24:26.690Z,12.12
2023-03-13T05:25:26.712Z,12.14
2023-03-13T05:26:26.650Z,12.13
2023-03-13T05:27:26.692Z,12.17
2023-03-13T05:28:26.637Z,12.20
2023-03-13T05:29:26.630Z,12.21
2023-03-13T05:30:26.643Z,12.20
2023-03-13T05:31:26.702Z,12.19
2023-03-13T05:32:26.629Z,12.24
2023-03-13T05:33:26.552Z,12.23
2023-03-13T05:34:26.534Z,12.21
2023-03-13T05:35:26.543Z,12.16
2023-03-13T05:36:26.547Z,12.19
2023-03-13T05:37:26.511Z,12.23
2023-03-13T05:38:26.534Z,12.24
2023-03-13T05:39:26.518Z,12.24
2023-03-13T05:40:26.460Z,12.27
2023-03-13T05:41:26.478Z,12.24
2023-03-13T05:42:26.451Z,12.23
2023-03-13T05:43:26.460Z,12.27
2023-03-13T05:44:26.420Z,12.27
2023-03-13T05:45:26.423Z,12.27
2023-03-13T05:46:26.454Z,12.29
2023-03-13T05:47:26.367Z,12.28
2023-03-13T05:48:26.376Z,12.28
2023-03-13T05:49:26.324Z,12.31
2023-03-13T05:50:26.322Z,12.37
2023-03-13T05:51:26.337Z,12.38
2023-03-13T05:52:26.294Z,12.38
2023-03-13T05:53:26.275Z,12.39
2023-03-13T05:54:26.322Z,12.41
2023-03-13T05:55:26.226Z,12.38
2023-03-13T05:56:26.214Z,12.39
2023-03-13T05:57:26.276Z,12.38
2023-03-13T05:58:26.207Z,12.37
2023-03-13T05:59:26.196Z,12.39
2023-03-13T06:00:26.228Z,12.46
2023-03-13T06:01:26.175Z,12.47
2023-03-13T06:02:26.120Z,12.52
2023-03-13T06:03:26.143Z,12.49
2023-03-13T06:04:26.225Z,12.50
2023-03-13T06:05:26.233Z,12.45
2023-03-13T06:06:26.103Z,12.45
2023-03-13T06:07:26.073Z,12.46
2023-03-13T06:08:26.111Z,12.42
2023-03-13T06:09:26.097Z,12.46
2023-03-13T06:10:26.007Z,12.42
2023-03-13T06:11:26.009Z,12.45
2023-03-13T06:12:25.983Z,12.46
2023-03-13T06:13:25.984Z,12.49
2023-03-13T06:14:25.986Z,12.52
2023-03-13T06:15:25.937Z,12.52
2023-03-13T06:16:25.973Z,12.56
2023-03-13T06:17:25.932Z,12.60
2023-03-13T06:18:25.913Z,12.68
2023-03-13T06:19:25.905Z,12.68
2023-03-13T06:20:25.896Z,12.67
2023-03-13T06:21:25.874Z,12.67
2023-03-13T06:22:25.834Z,12.70
2023-03-13T06:23:25.827Z,12.71
2023-03-13T06:24:25.815Z,12.71
2023-03-13T06:25:25.806Z,12.71
2023-03-13T06:26:25.829Z,12.77
2023-03-13T06:27:25.773Z,12.85
2023-03-13T06:28:25.774Z,12.86
2023-03-13T06:29:25.741Z,12.86
2023-03-13T06:30:25.727Z,12.89
2023-03-13T06:31:25.885Z,12.86
2023-03-13T06:32:25.807Z,12.86
2023-03-13T06:33:25.760Z,12.87
2023-03-13T06:34:25.769Z,12.87
2023-03-13T06:35:25.655Z,12.87
2023-03-13T06:36:25.785Z,12.87
2023-03-13T06:37:25.650Z,12.93
2023-03-13T06:38:25.665Z,12.89
2023-03-13T06:39:25.721Z,12.86
2023-03-13T06:40:25.577Z,12.96
2023-03-13T06:41:25.563Z,13.08
2023-03-13T06:42:25.553Z,13.11
2023-03-13T06:43:25.573Z,13.14
2023-03-13T06:44:28.633Z,13.11
2023-03-13T06:45:25.518Z,13.11
2023-03-13T06:46:25.562Z,13.10
2023-03-13T06:47:25.472Z,13.10
2023-03-13T06:48:25.463Z,13.08
2023-03-13T06:49:25.516Z,13.08
2023-03-13T06:50:25.489Z,13.07
2023-03-13T06:51:25.426Z,13.08
2023-03-13T06:52:34.168Z,13.12
2023-03-13T06:53:26.401Z,13.10
2023-03-13T06:54:25.404Z,13.08
2023-03-13T06:55:25.400Z,13.10
2023-03-13T06:56:25.418Z,13.07
2023-03-13T06:57:25.513Z,13.07
2023-03-13T06:58:32.524Z,13.14
2023-03-13T06:59:26.328Z,13.19
2023-03-13T07:00:25.312Z,13.17
2023-03-13T07:01:25.447Z,13.17
2023-03-13T07:02:25.294Z,13.23
2023-03-13T07:03:25.277Z,13.26
2023-03-13T07:04:25.259Z,13.29
2023-03-13T07:05:25.229Z,13.29
2023-03-13T07:06:25.234Z,13.36
2023-03-13T07:07:31.691Z,13.36
2023-03-13T07:08:26.261Z,13.36
2023-03-13T07:09:25.166Z,13.30
2023-03-13T07:10:25.257Z,13.30
2023-03-13T07:11:25.172Z,13.28
2023-03-13T07:12:25.156Z,13.30
2023-03-13T07:13:25.137Z,13.38
2023-03-13T07:14:25.280Z,13.42
2023-03-13T07:15:25.087Z,13.46
2023-03-13T07:16:25.167Z,13.45
2023-03-13T07:17:25.088Z,13.48
2023-03-13T07:18:25.077Z,13.60
2023-03-13T07:19:25.079Z,13.59
2023-03-13T07:20:25.104Z,13.64
2023-03-13T07:21:25.011Z,13.66
2023-03-13T07:22:24.999Z,13.64
2023-03-13T07:23:24.985Z,13.70
2023-03-13T07:24:25.122Z,13.73
2023-03-13T07:25:24.973Z,13.73
2023-03-13T07:26:24.970Z,13.78
2023-03-13T07:27:25.087Z,13.75
2023-03-13T07:28:24.944Z,13.71
2023-03-13T07:29:24.897Z,13.71
2023-03-13T07:30:24.897Z,13.71
2023-03-13T07:31:24.950Z,13.78
2023-03-13T07:32:24.917Z,13.79
2023-03-13T07:33:24.858Z,13.82
2023-03-13T07:34:24.835Z,13.84
2023-03-13T07:35:24.832Z,13.91
2023-03-13T07:36:24.878Z,13.91
2023-03-13T07:37:24.809Z,13.89
2023-03-13T07:38:24.786Z,13.87
2023-03-13T07:39:24.787Z,13.87
2023-03-13T07:40:24.760Z,13.85
2023-03-13T07:41:24.770Z,13.87
2023-03-13T07:42:24.738Z,13.85
2023-03-13T07:43:24.738Z,13.91
2023-03-13T07:44:24.710Z,13.92
2023-03-13T07:45:32.534Z,13.95
2023-03-13T07:46:24.861Z,13.97
2023-03-13T07:47:24.669Z,14.00
2023-03-13T07:48:24.664Z,14.00
2023-03-13T07:49:24.641Z,14.00
2023-03-13T07:50:24.715Z,13.99
2023-03-13T07:51:36.914Z,13.99
2023-03-13T07:52:25.725Z,13.99
2023-03-13T07:53:24.688Z,14.02
2023-03-13T07:54:24.596Z,14.03
2023-03-13T07:55:24.565Z,14.00
2023-03-13T07:56:24.612Z,13.97
2023-03-13T07:57:24.561Z,13.96
2023-03-13T07:58:24.579Z,13.95
2023-03-13T07:59:24.530Z,13.99
2023-03-13T08:00:24.554Z,14.00
2023-03-13T08:01:26.515Z,13.97
2023-03-13T08:02:24.522Z,14.02
2023-03-13T08:03:24.557Z,14.06
2023-03-13T08:04:24.439Z,14.04
2023-03-13T08:05:24.458Z,14.00
2023-03-13T08:06:24.459Z,14.03
2023-03-13T08:07:24.407Z,14.04
2023-03-13T08:08:24.445Z,14.04
2023-03-13T08:09:24.642Z,14.06
2023-03-13T08:10:24.378Z,14.04
2023-03-13T08:11:24.348Z,14.02
2023-03-13T08:12:24.361Z,14.07
2023-03-13T08:13:24.362Z,14.10
2023-03-13T08:14:24.314Z,14.15
2023-03-13T08:15:24.298Z,14.17
2023-03-13T08:16:24.317Z,14.12
2023-03-13T08:17:24.277Z,14.10
2023-03-13T08:18:24.260Z,14.07
2023-03-13T08:19:24.265Z,14.06
2023-03-13T08:20:24.236Z,14.09
2023-03-13T08:21:24.248Z,14.10
2023-03-13T08:22:24.232Z,14.10
2023-03-13T08:23:24.164Z,14.17
2023-03-13T08:24:24.171Z,14.24
2023-03-13T08:25:24.220Z,14.22
2023-03-13T08:26:24.189Z,14.24
2023-03-13T08:27:24.165Z,14.21
2023-03-13T08:28:24.111Z,14.27
2023-03-13T08:29:24.146Z,14.28
2023-03-13T08:30:24.096Z,14.25
2023-03-13T08:31:24.085Z,14.28
2023-03-13T08:32:24.102Z,14.29
2023-03-13T08:33:24.065Z,14.33
2023-03-13T08:34:24.039Z,14.32
2023-03-13T08:35:24.042Z,14.35
2023-03-13T08:36:24.050Z,14.36
2023-03-13T08:37:23.987Z,14.36
2023-03-13T08:38:23.995Z,14.36
2023-03-13T08:39:23.961Z,14.37
2023-03-13T08:40:23.979Z,14.40
2023-03-13T08:41:23.949Z,14.46
2023-03-13T08:42:23.941Z,14.51
2023-03-13T08:43:23.920Z,14.50
2023-03-13T08:44:23.917Z,14.51
2023-03-13T08:45:23.871Z,14.54
2023-03-13T08:46:23.938Z,14.52
2023-03-13T08:47:23.899Z,14.54
2023-03-13T08:48:23.869Z,14.54
2023-03-13T08:49:23.868Z,14.58
2023-03-13T08:50:23.824Z,14.60
2023-03-13T08:51:23.806Z,14.57
2023-03-13T08:52:23.810Z,14.54
2023-03-13T08:53:23.819Z,14.54
2023-03-13T08:54:23.783Z,14.54
2023-03-13T08:55:25.593Z,14.55
2023-03-13T08:56:23.746Z,14.62
2023-03-13T08:57:23.727Z,14.80
2023-03-13T08:58:23.738Z,14.92
2023-03-13T08:59:23.703Z,14.96
2023-03-13T09:00:23.761Z,15.01
2023-03-13T09:01:23.687Z,14.99
2023-03-13T09:02:23.729Z,15.06
2023-03-13T09:03:23.693Z,15.02
2023-03-13T09:04:23.673Z,15.06
2023-03-13T09:05:23.620Z,15.09
2023-03-13T09:06:23.641Z,15.16
2023-03-13T09:07:23.614Z,15.20
2023-03-13T09:08:23.673Z,15.28
2023-03-13T09:09:24.659Z,15.34
2023-03-13T09:10:23.723Z,15.41
2023-03-13T09:11:23.539Z,15.50
2023-03-13T09:12:30.890Z,15.56
2023-03-13T09:13:24.559Z,15.56
2023-03-13T09:14:23.565Z,15.53
2023-03-13T09:15:23.500Z,15.53
2023-03-13T09:16:23.526Z,15.49
2023-03-13T09:17:23.469Z,15.49
2023-03-13T09:18:23.526Z,15.41
2023-03-13T09:19:23.472Z,15.41
2023-03-13T09:20:23.492Z,15.43
2023-03-13T09:21:23.483Z,15.47
2023-03-13T09:22:23.439Z,15.54
2023-03-13T09:23:23.441Z,15.65
2023-03-13T09:24:23.376Z,15.67
2023-03-13T09:25:23.389Z,15.62
2023-03-13T09:26:23.684Z,15.60
2023-03-13T09:27:23.357Z,15.57
2023-03-13T09:28:23.336Z,15.54
2023-03-13T09:29:23.366Z,15.50
2023-03-13T09:30:23.359Z,15.50
2023-03-13T09:31:23.330Z,15.56
2023-03-13T09:32:23.460Z,15.57
2023-03-13T09:33:23.260Z,15.60
2023-03-13T09:34:23.276Z,15.56
2023-03-13T09:35:23.234Z,15.59
2023-03-13T09:36:23.411Z,15.62
2023-03-13T09:37:23.532Z,15.64
2023-03-13T09:38:23.187Z,15.65
2023-03-13T09:39:23.204Z,15.68
2023-03-13T09:40:23.288Z,15.64
2023-03-13T09:41:23.184Z,15.71
2023-03-13T09:42:23.143Z,15.75
2023-03-13T09:43:23.143Z,15.84
2023-03-13T09:44:23.165Z,15.89
2023-03-13T09:45:23.089Z,15.92
2023-03-13T09:46:23.167Z,15.83
2023-03-13T09:47:23.076Z,15.76
2023-03-13T09:48:23.080Z,15.74
2023-03-13T09:49:23.081Z,15.69
2023-03-13T09:50:23.049Z,15.68
2023-03-13T09:51:23.035Z,15.60
2023-03-13T09:52:22.990Z,15.64
2023-03-13T09:53:22.971Z,15.67
2023-03-13T09:54:22.959Z,15.69
2023-03-13T09:55:22.980Z,15.96
2023-03-13T09:56:22.946Z,16.17
2023-03-13T09:57:22.934Z,16.23
2023-03-13T09:58:22.910Z,16.25
2023-03-13T09:59:22.930Z,16.20
2023-03-13T10:00:22.912Z,16.07
2023-03-13T10:01:23.010Z,16.01
2023-03-13T10:02:22.840Z,15.90
2023-03-13T10:03:22.960Z,15.94
2023-03-13T10:04:22.861Z,15.94
2023-03-13T10:05:22.834Z,16.02
2023-03-13T10:06:22.834Z,16.12
2023-03-13T10:07:22.792Z,16.24
2023-03-13T10:08:22.792Z,16.42
2023-03-13T10:09:22.790Z,16.34
2023-03-13T10:10:22.744Z,16.34
2023-03-13T10:11:22.733Z,16.31
2023-03-13T10:12:22.725Z,16.31
2023-03-13T10:13:22.769Z,16.23
2023-03-13T10:14:22.676Z,16.08
2023-03-13T10:15:22.770Z,16.02
2023-03-13T10:16:22.700Z,15.94
2023-03-13T10:17:22.656Z,16.00
2023-03-13T10:18:22.645Z,16.04
2023-03-13T10:19:22.653Z,16.01
2023-03-13T10:20:22.645Z,16.08
2023-03-13T10:21:22.613Z,16.17
2023-03-13T10:22:22.715Z,16.25
2023-03-13T10:23:22.599Z,16.31
2023-03-13T10:24:22.558Z,16.46
2023-03-13T10:25:22.625Z,16.52
2023-03-13T10:26:22.528Z,16.76
2023-03-13T10:27:22.526Z,16.86
2023-03-13T10:28:22.575Z,16.81
2023-03-13T10:29:22.482Z,16.82
2023-03-13T10:30:22.467Z,16.86
2023-03-13T10:31:22.584Z,16.75
2023-03-13T10:32:22.539Z,16.68
2023-03-13T10:33:22.426Z,16.68
2023-03-13T10:34:22.771Z,16.53
2023-03-13T10:35:22.399Z,16.43
2023-03-13T10:36:22.460Z,16.30
2023-03-13T10:37:22.395Z,16.21
2023-03-13T10:38:25.246Z,16.15
2023-03-13T10:39:22.372Z,16.12
2023-03-13T10:40:22.349Z,16.23
2023-03-13T10:41:22.357Z,16.35
2023-03-13T10:42:22.308Z,16.45
2023-03-13T10:43:22.641Z,16.57
2023-03-13T10:44:22.294Z,16.63
2023-03-13T10:45:24.953Z,16.64
2023-03-13T10:46:22.322Z,16.57
2023-03-13T10:47:22.308Z,16.56
2023-03-13T10:48:22.331Z,16.60
2023-03-13T10:49:22.215Z,16.53
2023-03-13T10:50:22.245Z,16.50
2023-03-13T10:51:22.200Z,16.49
2023-03-13T10:52:22.194Z,16.50
2023-03-13T10:53:22.162Z,16.50
2023-03-13T10:54:22.177Z,16.57
2023-03-13T10:55:22.160Z,16.58
2023-03-13T10:56:22.124Z,16.58
2023-03-13T10:57:22.122Z,16.60
2023-03-13T10:58:22.124Z,16.66
2023-03-13T10:59:22.116Z,16.71
2023-03-13T11:00:22.097Z,16.68
2023-03-13T11:01:22.090Z,16.70
2023-03-13T11:02:22.087Z,16.71
2023-03-13T11:03:22.227Z,16.68
2023-03-13T11:04:22.036Z,16.70
2023-03-13T11:05:22.038Z,16.75
2023-03-13T11:06:22.021Z,16.75
2023-03-13T11:07:21.987Z,16.70
2023-03-13T11:08:22.051Z,16.68
2023-03-13T11:09:22.002Z,16.64
2023-03-13T11:10:21.979Z,16.64
2023-03-13T11:11:21.939Z,16.61
2023-03-13T11:12:22.005Z,16.63
2023-03-13T11:13:35.519Z,16.60
2023-03-13T11:14:22.900Z,16.56
2023-03-13T11:15:21.949Z,16.53
2023-03-13T11:16:21.971Z,16.56
2023-03-13T11:17:21.859Z,16.56
2023-03-13T11:18:21.827Z,16.61
2023-03-13T11:19:21.848Z,16.61
2023-03-13T11:20:21.838Z,16.64
2023-03-13T11:21:21.934Z,16.61
2023-03-13T11:22:21.850Z,16.61
2023-03-13T11:23:21.781Z,16.64
2023-03-13T11:24:21.797Z,16.68
2023-03-13T11:25:21.766Z,16.82
2023-03-13T11:26:21.751Z,16.85
2023-03-13T11:27:21.819Z,16.88
2023-03-13T11:28:21.730Z,16.89
2023-03-13T11:29:21.780Z,16.85
2023-03-13T11:30:21.727Z,16.86
2023-03-13T11:31:21.677Z,16.86
2023-03-13T11:32:21.688Z,16.86
2023-03-13T11:33:21.651Z,16.83
2023-03-13T11:34:21.714Z,16.85
2023-03-13T11:35:21.663Z,16.86
2023-03-13T11:36:21.636Z,16.89
2023-03-13T11:37:21.661Z,16.93
2023-03-13T11:38:21.568Z,16.98
2023-03-13T11:39:21.585Z,17.04
2023-03-13T11:40:21.692Z,17.04
2023-03-13T11:41:21.566Z,17.03
2023-03-13T11:42:21.594Z,17.08
2023-03-13T11:43:25.373Z,17.15
2023-03-13T11:44:21.513Z,17.19
2023-03-13T11:45:21.513Z,17.19
2023-03-13T11:46:21.590Z,17.22
2023-03-13T11:47:21.470Z,17.18
2023-03-13T11:48:21.481Z,17.18
2023-03-13T11:49:21.434Z,17.21
2023-03-13T11:50:21.418Z,17.14
2023-03-13T11:51:21.445Z,17.11
2023-03-13T11:52:21.371Z,17.15
2023-03-13T11:53:21.443Z,17.15
2023-03-13T11:54:21.336Z,17.19
2023-03-13T11:55:21.432Z,17.12
2023-03-13T11:56:21.462Z,17.08
2023-03-13T11:57:21.350Z,17.11
2023-03-13T11:58:21.294Z,17.16
2023-03-13T11:59:21.308Z,17.23
2023-03-13T12:00:21.293Z,17.28
2023-03-13T12:01:21.347Z,17.34
2023-03-13T12:02:21.287Z,17.36
2023-03-13T12:03:21.279Z,17.34
2023-03-13T12:04:21.224Z,17.36
2023-03-13T12:05:21.316Z,17.37
2023-03-13T12:06:28.031Z,17.28
2023-03-13T12:07:22.198Z,17.19
2023-03-13T12:08:21.170Z,17.18
2023-03-13T12:09:21.186Z,17.18
2023-03-13T12:10:21.226Z,17.16
2023-03-13T12:11:21.142Z,17.18
2023-03-13T12:12:21.163Z,17.19
2023-03-13T12:13:21.151Z,17.23
2023-03-13T12:14:21.108Z,17.26
2023-03-13T12:15:21.113Z,17.28
2023-03-13T12:16:21.180Z,17.30
2023-03-13T12:17:21.056Z,17.31
2023-03-13T12:18:21.057Z,17.31
2023-03-13T12:19:21.017Z,17.25
2023-03-13T12:20:21.003Z,17.31
2023-03-13T12:21:21.058Z,17.38
2023-03-13T12:22:21.031Z,17.44
2023-03-13T12:23:20.975Z,17.38
2023-03-13T12:24:20.966Z,17.37
2023-03-13T12:25:20.968Z,17.36
2023-03-13T12:26:20.973Z,17.34
2023-03-13T12:27:21.014Z,17.36
2023-03-13T12:28:23.483Z,17.33
2023-03-13T12:29:20.926Z,17.30
2023-03-13T12:30:20.907Z,17.28
2023-03-13T12:31:20.980Z,17.26
2023-03-13T12:32:20.964Z,17.26
2023-03-13T12:33:22.845Z,17.28
2023-03-13T12:34:20.840Z,17.28
2023-03-13T12:35:20.826Z,17.34
2023-03-13T12:36:20.857Z,17.37
2023-03-13T12:37:20.859Z,17.48
2023-03-13T12:38:20.811Z,17.56
2023-03-13T12:39:20.802Z,17.70
2023-03-13T12:40:20.762Z,17.72
2023-03-13T12:41:20.742Z,17.68
2023-03-13T12:42:20.713Z,17.68
2023-03-13T12:43:20.785Z,17.66
2023-03-13T12:44:20.722Z,17.58
2023-03-13T12:45:20.714Z,17.54
2023-03-13T12:46:20.733Z,17.51
2023-03-13T12:47:20.715Z,17.54
2023-03-13T12:48:20.763Z,17.59
2023-03-13T12:49:20.658Z,17.66
2023-03-13T12:50:20.671Z,17.68
2023-03-13T12:51:20.617Z,17.59
2023-03-13T12:52:20.634Z,17.55
2023-03-13T12:53:21.086Z,17.51
2023-03-13T12:54:20.610Z,17.48
2023-03-13T12:55:20.538Z,17.41
2023-03-13T12:56:20.560Z,17.41
2023-03-13T12:57:20.562Z,17.36